createdAt,value
2018-09-28T00:01:28.059Z,8.23
2018-09-28T00:06:25.519Z,6.53
2018-09-28T00:11:22.984Z,6.63
2018-09-28T00:16:20.479Z,6.90
2018-09-28T00:21:17.915Z,7.90
2018-09-28T00:26:15.401Z,7.50
2018-09-28T00:31:12.831Z,7.10
2018-09-28T00:36:10.288Z,6.50
2018-09-28T00:41:07.729Z,6.43
2018-09-28T00:46:05.149Z,6.50
2018-09-28T00:51:02.571Z,8.37
2018-09-28T00:56:00.055Z,6.50
2018-09-28T01:00:57.559Z,6.20
2018-09-28T01:05:55.005Z,6.10
2018-09-28T01:10:52.506Z,7.10
2018-09-28T01:15:50.195Z,6.23
2018-09-28T01:20:47.641Z,5.97
2018-09-28T01:25:45.208Z,6.47
2018-09-28T01:30:46.763Z,6.63
2018-09-28T01:35:44.272Z,6.77
2018-09-28T01:40:41.705Z,7.67
2018-09-28T01:45:39.176Z,6.17
2018-09-28T01:50:36.612Z,6.40
2018-09-28T01:55:34.100Z,7.37
2018-09-28T02:00:31.552Z,6.50
2018-09-28T02:05:29.011Z,5.20
2018-09-28T02:10:26.446Z,6.57
2018-09-28T02:15:23.864Z,6.30
2018-09-28T02:20:21.315Z,6.20
2018-09-28T02:25:18.784Z,6.57
2018-09-28T02:30:16.249Z,6.90
2018-09-28T02:35:13.697Z,6.00
2018-09-28T02:40:11.147Z,6.43
2018-09-28T02:45:08.591Z,6.17
2018-09-28T02:50:06.275Z,7.10
2018-09-28T02:55:03.760Z,13.30
2018-09-28T03:00:01.229Z,6.30
2018-09-28T03:04:58.652Z,6.13
2018-09-28T03:09:56.108Z,5.10
2018-09-28T03:14:53.568Z,6.00
2018-09-28T03:19:51.021Z,6.77
2018-09-28T03:24:48.529Z,7.70
2018-09-28T03:29:45.965Z,7.43
2018-09-28T03:34:43.389Z,7.87
2018-09-28T03:39:40.814Z,7.10
2018-09-28T03:44:38.257Z,7.57
2018-09-28T03:49:35.728Z,7.00
2018-09-28T03:54:34.218Z,7.50
2018-09-28T03:59:31.713Z,5.80
2018-09-28T04:04:29.117Z,6.50
2018-09-28T04:09:26.553Z,5.87
2018-09-28T04:14:23.989Z,8.43
2018-09-28T04:19:21.461Z,8.07
2018-09-28T04:24:22.985Z,8.00
2018-09-28T04:29:20.469Z,8.17
2018-09-28T04:34:17.969Z,9.00
2018-09-28T04:39:15.684Z,8.47
2018-09-28T04:44:13.226Z,9.60
2018-09-28T04:49:11.229Z,8.10
2018-09-28T04:54:13.710Z,8.27
2018-09-28T04:59:11.280Z,9.17
2018-09-28T05:04:08.780Z,9.40
2018-09-28T05:09:10.567Z,8.87
2018-09-28T05:14:08.148Z,9.90
2018-09-28T05:19:05.604Z,9.10
2018-09-28T05:24:11.434Z,10.43
2018-09-28T05:29:08.921Z,9.30
2018-09-28T05:34:06.438Z,9.67
2018-09-28T05:39:06.315Z,10.30
2018-09-28T05:44:03.874Z,9.07
2018-09-28T05:49:01.337Z,10.93
2018-09-28T05:54:28.956Z,10.63
2018-09-28T05:59:31.930Z,10.40
2018-09-28T06:05:37.700Z,10.27
2018-09-28T06:10:35.089Z,11.60
2018-09-28T06:15:32.553Z,13.83
2018-09-28T06:20:30.700Z,15.90
2018-09-28T06:25:28.408Z,15.73
2018-09-28T06:30:25.909Z,14.13
2018-09-28T06:35:23.370Z,13.43
2018-09-28T06:40:20.853Z,13.70
2018-09-28T06:45:18.325Z,14.80
2018-09-28T06:50:15.829Z,15.33
2018-09-28T06:55:13.298Z,10.57
2018-09-28T07:00:10.792Z,10.23
2018-09-28T07:05:08.238Z,6.30
2018-09-28T07:10:05.729Z,6.77
2018-09-28T07:15:03.281Z,6.00
2018-09-28T07:20:00.732Z,4.90
2018-09-28T07:24:59.365Z,4.80
2018-09-28T07:29:57.033Z,4.77
2018-09-28T07:34:54.356Z,3.47
2018-09-28T07:39:51.810Z,3.37
2018-09-28T07:44:49.285Z,3.30
2018-09-28T07:49:46.750Z,2.87
2018-09-28T07:54:45.403Z,3.40
2018-09-28T07:59:42.870Z,1.90
2018-09-28T08:04:40.311Z,3.20
2018-09-28T08:09:37.761Z,3.00
2018-09-28T08:14:35.221Z,2.90
2018-09-28T08:19:32.659Z,4.63
2018-09-28T08:24:36.276Z,2.73
2018-09-28T08:29:33.784Z,2.60
2018-09-28T08:34:31.314Z,3.23
2018-09-28T08:39:28.760Z,3.43
2018-09-28T08:44:26.199Z,3.57
2018-09-28T08:49:23.708Z,2.90
2018-09-28T08:54:28.698Z,2.03
2018-09-28T08:59:26.244Z,2.80
2018-09-28T09:04:23.764Z,2.73
2018-09-28T09:09:21.185Z,2.10
2018-09-28T09:14:18.630Z,2.40
2018-09-28T09:19:16.157Z,2.20
2018-09-28T09:24:17.891Z,2.27
2018-09-28T09:29:15.378Z,2.63
2018-09-28T09:34:13.001Z,2.50
2018-09-28T09:39:11.143Z,1.63
2018-09-28T09:44:08.783Z,1.90
2018-09-28T09:49:06.352Z,2.97
2018-09-28T09:54:07.324Z,2.40
2018-09-28T09:59:04.909Z,1.60
2018-09-28T10:04:08.233Z,3.20
2018-09-28T10:09:10.159Z,1.90
2018-09-28T10:14:07.641Z,3.30
2018-09-28T10:19:05.246Z,2.50
2018-09-28T10:24:05.161Z,2.57
2018-09-28T10:29:02.709Z,2.33
2018-09-28T10:34:00.172Z,2.50
2018-09-28T10:38:57.600Z,2.83
2018-09-28T10:43:55.064Z,3.40
2018-09-28T10:48:52.814Z,3.13
2018-09-28T10:53:56.132Z,2.83
2018-09-28T10:58:53.730Z,2.70
2018-09-28T11:03:51.176Z,2.47
2018-09-28T11:08:48.679Z,2.47
2018-09-28T11:13:46.133Z,1.90
2018-09-28T11:18:43.600Z,1.90
2018-09-28T11:23:42.039Z,3.23
2018-09-28T11:28:39.800Z,1.80
2018-09-28T11:33:37.288Z,2.53
2018-09-28T11:38:34.734Z,1.83
2018-09-28T11:43:32.184Z,2.17
2018-09-28T11:48:29.637Z,1.90
2018-09-28T11:53:27.106Z,2.00
2018-09-28T11:58:24.651Z,2.10
2018-09-28T12:03:23.954Z,1.07
2018-09-28T12:08:24.117Z,2.13
2018-09-28T12:13:23.669Z,1.80
2018-09-28T12:18:23.541Z,2.20
2018-09-28T12:23:26.039Z,2.10
2018-09-28T12:28:27.270Z,1.43
2018-09-28T12:33:28.590Z,2.30
2018-09-28T12:38:29.049Z,2.57
2018-09-28T12:43:35.028Z,1.57
2018-09-28T12:48:27.593Z,2.13
2018-09-28T12:53:30.693Z,1.17
2018-09-28T13:03:54.144Z,2.20
2018-09-28T13:09:05.837Z,2.07
2018-09-28T13:19:15.011Z,1.80
2018-09-28T13:24:19.582Z,2.23
2018-09-28T13:29:30.220Z,1.37
2018-09-28T13:34:31.543Z,2.37
2018-09-28T13:44:54.945Z,1.50
2018-09-28T13:49:57.587Z,0.90
2018-09-28T13:55:04.496Z,1.60
2018-09-28T14:00:19.067Z,1.30
2018-09-28T14:05:25.496Z,1.07
2018-09-28T14:10:27.975Z,1.07
2018-09-28T14:15:34.560Z,0.70
2018-09-28T14:20:34.183Z,1.20
2018-09-28T14:25:40.732Z,1.53
2018-09-28T14:30:40.043Z,1.03
2018-09-28T14:35:38.310Z,0.97
2018-09-28T14:40:37.639Z,0.93
2018-09-28T14:45:36.254Z,1.27
2018-09-28T14:50:34.688Z,1.17
2018-09-28T14:55:33.360Z,1.10
2018-09-28T15:00:34.584Z,1.37
2018-09-28T15:05:34.136Z,1.20
2018-09-28T15:10:33.126Z,1.17
2018-09-28T15:15:32.004Z,1.50
2018-09-28T15:20:30.766Z,1.87
2018-09-28T15:25:30.653Z,2.07
2018-09-28T15:30:29.033Z,1.77
2018-09-28T15:35:31.356Z,1.43
2018-09-28T15:40:30.027Z,1.10
2018-09-28T15:45:31.447Z,1.30
2018-09-28T15:50:29.703Z,1.80
2018-09-28T15:55:28.075Z,1.40
2018-09-28T16:00:28.364Z,1.67
2018-09-28T16:05:28.831Z,1.67
2018-09-28T16:10:27.276Z,1.40
2018-09-28T16:15:26.382Z,1.70
2018-09-28T16:20:25.213Z,2.17
2018-09-28T16:25:24.232Z,1.47
2018-09-28T16:30:23.905Z,1.60
2018-09-28T16:35:22.989Z,2.80
2018-09-28T16:40:24.822Z,1.97
2018-09-28T16:45:24.795Z,1.47
2018-09-28T16:50:26.283Z,1.10
2018-09-28T16:55:26.845Z,1.03
2018-09-28T17:00:31.253Z,1.53
2018-09-28T17:05:29.850Z,1.10
2018-09-28T17:10:32.988Z,1.40
2018-09-28T17:15:35.132Z,1.33
2018-09-28T17:20:34.936Z,1.80
2018-09-28T17:25:33.269Z,1.93
2018-09-28T17:30:32.709Z,1.73
2018-09-28T17:35:33.945Z,2.40
2018-09-28T17:40:32.462Z,1.13
2018-09-28T17:45:31.140Z,2.37
2018-09-28T17:50:30.363Z,1.40
2018-09-28T17:55:29.916Z,1.47
2018-09-28T18:00:30.053Z,1.83
2018-09-28T18:05:39.669Z,1.80
2018-09-28T18:10:40.100Z,3.00
2018-09-28T18:15:42.904Z,1.83
2018-09-28T18:20:45.354Z,2.00
2018-09-28T18:25:45.609Z,1.77
2018-09-28T18:30:47.807Z,2.90
2018-09-28T18:35:47.279Z,2.03
2018-09-28T18:40:51.782Z,1.03
2018-09-28T18:45:51.060Z,1.80
2018-09-28T18:50:50.770Z,1.00
2018-09-28T18:55:49.361Z,2.20
2018-09-28T19:00:47.730Z,2.20
2018-09-28T19:05:46.142Z,1.73
2018-09-28T19:10:44.751Z,2.10
2018-09-28T19:15:44.926Z,2.07
2018-09-28T19:20:42.814Z,2.20
2018-09-28T19:25:41.481Z,1.30
2018-09-28T19:30:39.856Z,1.07
2018-09-28T19:35:38.423Z,2.07
2018-09-28T19:40:36.952Z,1.60
2018-09-28T19:45:34.971Z,2.27
2018-09-28T19:50:35.558Z,2.20
2018-09-28T19:55:34.984Z,1.20
2018-09-28T20:00:33.038Z,1.63
2018-09-28T20:05:31.081Z,1.73
2018-09-28T20:10:29.663Z,2.00
2018-09-28T20:15:27.608Z,1.67
2018-09-28T20:20:26.052Z,2.23
2018-09-28T20:25:24.461Z,1.83
2018-09-28T20:30:23.824Z,1.90
2018-09-28T20:35:23.302Z,2.27
2018-09-28T20:40:21.517Z,2.60
2018-09-28T20:45:19.952Z,1.73
2018-09-28T20:50:26.827Z,2.30
2018-09-28T20:55:27.169Z,1.60
2018-09-28T21:00:31.463Z,1.63
2018-09-28T21:05:32.301Z,2.77
2018-09-28T21:10:32.594Z,6.27
2018-09-28T21:15:32.718Z,3.93
2018-09-28T21:20:31.360Z,1.73
2018-09-28T21:25:30.438Z,1.80
2018-09-28T21:30:29.016Z,2.43
2018-09-28T21:35:34.037Z,1.53
2018-09-28T21:40:32.753Z,2.57
2018-09-28T21:45:34.600Z,2.70
2018-09-28T21:50:36.473Z,1.67
2018-09-28T21:55:39.744Z,2.57
2018-09-28T22:00:40.047Z,1.73
2018-09-28T22:05:39.952Z,2.63
2018-09-28T22:10:40.273Z,2.00
2018-09-28T22:15:47.067Z,2.10
2018-09-28T22:20:46.961Z,2.07
2018-09-28T22:25:48.583Z,2.03
2018-09-28T22:30:53.250Z,2.47
2018-09-28T22:35:53.245Z,2.73
2018-09-28T22:40:53.796Z,2.03
2018-09-28T22:45:55.350Z,2.30
2018-09-28T22:51:01.726Z,2.60
2018-09-28T23:01:21.069Z,2.07
2018-09-28T23:06:28.250Z,1.80
2018-09-28T23:11:39.797Z,2.10
2018-09-28T23:16:48.652Z,2.83
2018-09-28T23:21:49.953Z,2.40
2018-09-28T23:26:49.890Z,2.13
2018-09-28T23:31:59.323Z,1.83
2018-09-28T23:37:04.327Z,2.47
2018-09-28T23:42:04.982Z,2.10
2018-09-28T23:47:26.024Z,1.90
2018-09-28T23:52:30.629Z,4.27
2018-09-28T23:57:36.783Z,3.37
